sensor_id;sensor_type;location;lat;lon;timestamp;temperature;humidity
582;DHT22;277;50.074;8.436;2023-02-15T00:02:08;3.80;99.90
582;DHT22;277;50.074;8.436;2023-02-15T00:04:37;4.00;99.90
582;DHT22;277;50.074;8.436;2023-02-15T00:07:15;4.20;99.90
582;DHT22;277;50.074;8.436;2023-02-15T00:09:45;4.30;99.90
582;DHT22;277;50.074;8.436;2023-02-15T00:12:13;4.10;99.90
582;DHT22;277;50.074;8.436;2023-02-15T00:14:41;4.10;99.90
582;DHT22;277;50.074;8.436;2023-02-15T00:17:09;3.80;99.90
582;DHT22;277;50.074;8.436;2023-02-15T00:19:38;3.80;99.90
582;DHT22;277;50.074;8.436;2023-02-15T00:22:16;3.80;99.90
582;DHT22;277;50.074;8.436;2023-02-15T00:24:44;4.00;99.90
582;DHT22;277;50.074;8.436;2023-02-15T00:27:12;4.20;99.90
582;DHT22;277;50.074;8.436;2023-02-15T00:29:40;4.30;99.90
582;DHT22;277;50.074;8.436;2023-02-15T00:32:08;4.30;99.90
582;DHT22;277;50.074;8.436;2023-02-15T00:34:37;4.40;99.90
582;DHT22;277;50.074;8.436;2023-02-15T00:37:05;4.50;99.90
582;DHT22;277;50.074;8.436;2023-02-15T00:39:33;4.60;99.90
582;DHT22;277;50.074;8.436;2023-02-15T00:42:00;4.60;99.90
582;DHT22;277;50.074;8.436;2023-02-15T00:44:28;4.60;99.90
582;DHT22;277;50.074;8.436;2023-02-15T00:46:56;4.70;99.90
582;DHT22;277;50.074;8.436;2023-02-15T00:49:24;4.70;99.90
582;DHT22;277;50.074;8.436;2023-02-15T00:51:53;4.80;99.90
582;DHT22;277;50.074;8.436;2023-02-15T00:54:21;4.70;99.90
582;DHT22;277;50.074;8.436;2023-02-15T00:56:49;4.80;99.90
582;DHT22;277;50.074;8.436;2023-02-15T00:59:17;4.80;99.90
582;DHT22;277;50.074;8.436;2023-02-15T01:01:44;4.70;99.90
582;DHT22;277;50.074;8.436;2023-02-15T01:04:12;4.70;99.90
582;DHT22;277;50.074;8.436;2023-02-15T01:06:40;4.80;99.90
582;DHT22;277;50.074;8.436;2023-02-15T01:09:09;4.90;99.90
582;DHT22;277;50.074;8.436;2023-02-15T01:11:39;4.90;99.90
582;DHT22;277;50.074;8.436;2023-02-15T01:14:06;4.90;99.90
582;DHT22;277;50.074;8.436;2023-02-15T01:16:34;4.80;99.90
582;DHT22;277;50.074;8.436;2023-02-15T01:19:02;4.90;99.90
582;DHT22;277;50.074;8.436;2023-02-15T01:21:30;4.90;99.90
582;DHT22;277;50.074;8.436;2023-02-15T01:24:01;4.80;99.90
582;DHT22;277;50.074;8.436;2023-02-15T01:26:30;4.80;99.90
582;DHT22;277;50.074;8.436;2023-02-15T01:28:58;4.60;99.90
582;DHT22;277;50.074;8.436;2023-02-15T01:31:26;4.40;99.90
582;DHT22;277;50.074;8.436;2023-02-15T01:33:54;4.60;99.90
582;DHT22;277;50.074;8.436;2023-02-15T01:36:21;4.60;99.90
582;DHT22;277;50.074;8.436;2023-02-15T01:38:49;4.50;99.90
582;DHT22;277;50.074;8.436;2023-02-15T01:41:17;4.60;99.90
582;DHT22;277;50.074;8.436;2023-02-15T01:43:53;4.70;99.90
582;DHT22;277;50.074;8.436;2023-02-15T01:46:27;4.70;99.90
582;DHT22;277;50.074;8.436;2023-02-15T01:49:00;4.70;99.90
582;DHT22;277;50.074;8.436;2023-02-15T01:51:31;4.60;99.90
582;DHT22;277;50.074;8.436;2023-02-15T01:54:03;4.60;99.90
582;DHT22;277;50.074;8.436;2023-02-15T01:56:36;4.80;99.90
582;DHT22;277;50.074;8.436;2023-02-15T01:59:09;4.70;99.90
582;DHT22;277;50.074;8.436;2023-02-15T02:01:39;4.70;99.90
582;DHT22;277;50.074;8.436;2023-02-15T02:04:12;4.70;99.90
582;DHT22;277;50.074;8.436;2023-02-15T02:06:42;4.70;99.90
582;DHT22;277;50.074;8.436;2023-02-15T02:09:11;4.80;99.90
582;DHT22;277;50.074;8.436;2023-02-15T02:11:40;4.90;99.90
582;DHT22;277;50.074;8.436;2023-02-15T02:14:09;4.70;99.90
582;DHT22;277;50.074;8.436;2023-02-15T02:16:44;4.70;99.90
582;DHT22;277;50.074;8.436;2023-02-15T02:19:39;4.80;99.90
582;DHT22;277;50.074;8.436;2023-02-15T02:31:50;4.70;99.90
582;DHT22;277;50.074;8.436;2023-02-15T02:34:26;4.80;99.90
582;DHT22;277;50.074;8.436;2023-02-15T02:37:02;4.90;99.90
582;DHT22;277;50.074;8.436;2023-02-15T02:39:40;4.90;99.90
582;DHT22;277;50.074;8.436;2023-02-15T02:42:17;5.00;99.90
582;DHT22;277;50.074;8.436;2023-02-15T02:44:51;4.90;99.90
582;DHT22;277;50.074;8.436;2023-02-15T02:47:23;4.90;99.90
582;DHT22;277;50.074;8.436;2023-02-15T02:50:00;4.90;99.90
582;DHT22;277;50.074;8.436;2023-02-15T02:52:37;4.90;99.90
582;DHT22;277;50.074;8.436;2023-02-15T02:55:10;5.10;99.90
582;DHT22;277;50.074;8.436;2023-02-15T02:57:43;5.00;99.90
582;DHT22;277;50.074;8.436;2023-02-15T03:00:14;5.00;99.90
582;DHT22;277;50.074;8.436;2023-02-15T03:02:45;4.70;99.90
582;DHT22;277;50.074;8.436;2023-02-15T03:05:21;4.60;99.90
582;DHT22;277;50.074;8.436;2023-02-15T03:07:52;4.30;99.90
582;DHT22;277;50.074;8.436;2023-02-15T03:10:22;4.20;99.90
582;DHT22;277;50.074;8.436;2023-02-15T03:12:52;4.30;99.90
582;DHT22;277;50.074;8.436;2023-02-15T03:15:21;4.40;99.90
582;DHT22;277;50.074;8.436;2023-02-15T03:17:56;4.60;99.90
582;DHT22;277;50.074;8.436;2023-02-15T03:20:30;4.70;99.90
582;DHT22;277;50.074;8.436;2023-02-15T03:23:01;4.80;99.90
582;DHT22;277;50.074;8.436;2023-02-15T03:25:33;5.00;99.90
582;DHT22;277;50.074;8.436;2023-02-15T03:28:04;5.00;99.90
582;DHT22;277;50.074;8.436;2023-02-15T03:30:35;5.10;99.90
582;DHT22;277;50.074;8.436;2023-02-15T03:33:17;5.10;99.90
582;DHT22;277;50.074;8.436;2023-02-15T03:35:50;5.20;99.90
582;DHT22;277;50.074;8.436;2023-02-15T03:38:28;5.20;99.90
582;DHT22;277;50.074;8.436;2023-02-15T03:40:58;5.30;99.90
582;DHT22;277;50.074;8.436;2023-02-15T03:43:44;5.20;99.90
582;DHT22;277;50.074;8.436;2023-02-15T03:46:18;5.00;99.90
582;DHT22;277;50.074;8.436;2023-02-15T03:48:52;4.90;99.90
582;DHT22;277;50.074;8.436;2023-02-15T03:51:25;4.80;99.90
582;DHT22;277;50.074;8.436;2023-02-15T03:54:01;4.80;99.90
582;DHT22;277;50.074;8.436;2023-02-15T03:56:30;4.80;99.90
582;DHT22;277;50.074;8.436;2023-02-15T03:58:58;4.80;99.90
582;DHT22;277;50.074;8.436;2023-02-15T04:01:49;4.90;99.90
582;DHT22;277;50.074;8.436;2023-02-15T04:04:28;4.90;99.90
582;DHT22;277;50.074;8.436;2023-02-15T04:06:59;5.00;99.90
582;DHT22;277;50.074;8.436;2023-02-15T04:09:27;4.50;99.90
582;DHT22;277;50.074;8.436;2023-02-15T04:12:12;4.20;99.90
582;DHT22;277;50.074;8.436;2023-02-15T04:14:40;4.40;99.90
582;DHT22;277;50.074;8.436;2023-02-15T04:17:28;4.50;99.90
582;DHT22;277;50.074;8.436;2023-02-15T04:19:56;4.70;99.90
582;DHT22;277;50.074;8.436;2023-02-15T04:22:43;4.60;99.90
582;DHT22;277;50.074;8.436;2023-02-15T04:25:28;4.70;99.90
582;DHT22;277;50.074;8.436;2023-02-15T04:27:56;4.70;99.90
582;DHT22;277;50.074;8.436;2023-02-15T04:30:25;4.50;99.90
582;DHT22;277;50.074;8.436;2023-02-15T04:32:54;4.50;99.90
582;DHT22;277;50.074;8.436;2023-02-15T04:35:23;4.60;99.90
582;DHT22;277;50.074;8.436;2023-02-15T04:37:52;4.80;99.90
582;DHT22;277;50.074;8.436;2023-02-15T04:40:19;4.80;99.90
582;DHT22;277;50.074;8.436;2023-02-15T04:42:48;4.80;99.90
582;DHT22;277;50.074;8.436;2023-02-15T04:45:16;4.70;99.90
582;DHT22;277;50.074;8.436;2023-02-15T04:47:44;4.50;99.90
582;DHT22;277;50.074;8.436;2023-02-15T04:50:12;4.40;99.90
582;DHT22;277;50.074;8.436;2023-02-15T04:52:40;4.50;99.90
582;DHT22;277;50.074;8.436;2023-02-15T04:55:09;4.60;99.90
582;DHT22;277;50.074;8.436;2023-02-15T04:57:37;4.70;99.90
582;DHT22;277;50.074;8.436;2023-02-15T05:00:06;4.80;99.90
582;DHT22;277;50.074;8.436;2023-02-15T05:02:35;4.40;99.90
582;DHT22;277;50.074;8.436;2023-02-15T05:05:03;4.40;99.90
582;DHT22;277;50.074;8.436;2023-02-15T05:07:31;4.40;99.90
582;DHT22;277;50.074;8.436;2023-02-15T05:09:59;4.50;99.90
582;DHT22;277;50.074;8.436;2023-02-15T05:12:28;4.60;99.90
582;DHT22;277;50.074;8.436;2023-02-15T05:14:56;4.70;99.90
582;DHT22;277;50.074;8.436;2023-02-15T05:17:24;4.40;99.90
582;DHT22;277;50.074;8.436;2023-02-15T05:19:52;4.10;99.90
582;DHT22;277;50.074;8.436;2023-02-15T05:22:19;3.80;99.90
582;DHT22;277;50.074;8.436;2023-02-15T05:24:47;3.40;99.90
582;DHT22;277;50.074;8.436;2023-02-15T05:27:34;3.40;99.90
582;DHT22;277;50.074;8.436;2023-02-15T05:30:20;3.50;99.90
582;DHT22;277;50.074;8.436;2023-02-15T05:32:48;3.70;99.90
582;DHT22;277;50.074;8.436;2023-02-15T05:35:16;4.00;99.90
582;DHT22;277;50.074;8.436;2023-02-15T05:37:44;3.90;99.90
582;DHT22;277;50.074;8.436;2023-02-15T05:40:12;4.10;99.90
582;DHT22;277;50.074;8.436;2023-02-15T05:42:41;4.40;99.90
582;DHT22;277;50.074;8.436;2023-02-15T05:45:09;4.60;99.90
582;DHT22;277;50.074;8.436;2023-02-15T05:47:37;4.70;99.90
582;DHT22;277;50.074;8.436;2023-02-15T05:50:06;4.90;99.90
582;DHT22;277;50.074;8.436;2023-02-15T05:52:34;4.60;99.90
582;DHT22;277;50.074;8.436;2023-02-15T05:55:02;4.50;99.90
582;DHT22;277;50.074;8.436;2023-02-15T05:57:30;4.30;99.90
582;DHT22;277;50.074;8.436;2023-02-15T06:00:00;4.60;99.90
582;DHT22;277;50.074;8.436;2023-02-15T06:02:27;4.80;99.90
582;DHT22;277;50.074;8.436;2023-02-15T06:04:55;5.00;99.90
582;DHT22;277;50.074;8.436;2023-02-15T06:07:23;5.00;99.90
582;DHT22;277;50.074;8.436;2023-02-15T06:09:51;5.00;99.90
582;DHT22;277;50.074;8.436;2023-02-15T06:12:19;5.10;99.90
582;DHT22;277;50.074;8.436;2023-02-15T06:14:47;4.50;99.90
582;DHT22;277;50.074;8.436;2023-02-15T06:17:17;3.80;99.90
582;DHT22;277;50.074;8.436;2023-02-15T06:19:45;3.40;99.90
582;DHT22;277;50.074;8.436;2023-02-15T06:22:12;3.30;99.90
582;DHT22;277;50.074;8.436;2023-02-15T06:24:41;3.10;99.90
582;DHT22;277;50.074;8.436;2023-02-15T06:27:10;2.90;99.90
582;DHT22;277;50.074;8.436;2023-02-15T06:29:38;2.90;99.90
582;DHT22;277;50.074;8.436;2023-02-15T06:32:06;3.20;99.90
582;DHT22;277;50.074;8.436;2023-02-15T06:34:35;3.00;99.90
582;DHT22;277;50.074;8.436;2023-02-15T06:37:03;2.70;99.90
582;DHT22;277;50.074;8.436;2023-02-15T06:39:31;2.60;99.90
582;DHT22;277;50.074;8.436;2023-02-15T06:41:59;2.30;99.90
582;DHT22;277;50.074;8.436;2023-02-15T06:44:27;2.30;99.90
582;DHT22;277;50.074;8.436;2023-02-15T06:46:55;2.20;99.90
582;DHT22;277;50.074;8.436;2023-02-15T06:49:23;1.90;99.90
582;DHT22;277;50.074;8.436;2023-02-15T06:51:52;1.80;99.90
582;DHT22;277;50.074;8.436;2023-02-15T06:54:20;1.80;99.90
582;DHT22;277;50.074;8.436;2023-02-15T06:56:48;1.80;99.90
582;DHT22;277;50.074;8.436;2023-02-15T06:59:16;1.90;99.90
582;DHT22;277;50.074;8.436;2023-02-15T07:01:44;1.90;99.90
582;DHT22;277;50.074;8.436;2023-02-15T07:04:12;1.90;99.90
582;DHT22;277;50.074;8.436;2023-02-15T07:06:39;1.80;99.90
582;DHT22;277;50.074;8.436;2023-02-15T07:09:09;1.70;99.90
582;DHT22;277;50.074;8.436;2023-02-15T07:11:37;1.60;99.90
582;DHT22;277;50.074;8.436;2023-02-15T07:14:22;1.60;99.90
582;DHT22;277;50.074;8.436;2023-02-15T07:16:52;1.70;99.90
582;DHT22;277;50.074;8.436;2023-02-15T07:19:19;1.60;99.90
582;DHT22;277;50.074;8.436;2023-02-15T07:21:47;1.70;99.90
582;DHT22;277;50.074;8.436;2023-02-15T07:24:16;1.70;99.90
582;DHT22;277;50.074;8.436;2023-02-15T07:26:44;1.70;99.90
582;DHT22;277;50.074;8.436;2023-02-15T07:29:12;1.80;99.90
582;DHT22;277;50.074;8.436;2023-02-15T07:31:41;1.80;99.90
582;DHT22;277;50.074;8.436;2023-02-15T07:34:09;1.70;99.90
582;DHT22;277;50.074;8.436;2023-02-15T07:36:37;1.80;99.90
582;DHT22;277;50.074;8.436;2023-02-15T07:39:05;1.80;99.90
582;DHT22;277;50.074;8.436;2023-02-15T07:41:34;1.80;99.90
582;DHT22;277;50.074;8.436;2023-02-15T07:44:02;1.80;99.90
582;DHT22;277;50.074;8.436;2023-02-15T07:46:30;1.60;99.90
582;DHT22;277;50.074;8.436;2023-02-15T07:48:58;1.60;99.90
582;DHT22;277;50.074;8.436;2023-02-15T07:51:26;1.50;99.90
582;DHT22;277;50.074;8.436;2023-02-15T07:53:53;1.50;99.90
582;DHT22;277;50.074;8.436;2023-02-15T07:56:21;1.60;99.90
582;DHT22;277;50.074;8.436;2023-02-15T07:58:50;1.60;99.90
582;DHT22;277;50.074;8.436;2023-02-15T08:01:20;1.60;99.90
582;DHT22;277;50.074;8.436;2023-02-15T08:03:49;1.50;99.90
582;DHT22;277;50.074;8.436;2023-02-15T08:06:17;1.50;99.90
582;DHT22;277;50.074;8.436;2023-02-15T08:08:45;1.40;99.90
582;DHT22;277;50.074;8.436;2023-02-15T08:11:19;1.30;99.90
582;DHT22;277;50.074;8.436;2023-02-15T08:14:12;1.30;99.90
582;DHT22;277;50.074;8.436;2023-02-15T08:16:41;1.40;99.90
582;DHT22;277;50.074;8.436;2023-02-15T08:19:11;1.40;99.90
582;DHT22;277;50.074;8.436;2023-02-15T08:21:41;1.30;99.90
582;DHT22;277;50.074;8.436;2023-02-15T08:24:11;1.40;99.90
582;DHT22;277;50.074;8.436;2023-02-15T08:26:39;1.50;99.90
582;DHT22;277;50.074;8.436;2023-02-15T08:29:11;1.60;99.90
582;DHT22;277;50.074;8.436;2023-02-15T08:31:39;1.70;99.90
582;DHT22;277;50.074;8.436;2023-02-15T08:34:09;1.50;99.90
582;DHT22;277;50.074;8.436;2023-02-15T08:36:37;1.40;99.90
582;DHT22;277;50.074;8.436;2023-02-15T08:39:06;1.30;99.90
582;DHT22;277;50.074;8.436;2023-02-15T08:41:35;1.40;99.90
582;DHT22;277;50.074;8.436;2023-02-15T08:44:05;1.30;99.90
582;DHT22;277;50.074;8.436;2023-02-15T08:46:36;1.30;99.90
582;DHT22;277;50.074;8.436;2023-02-15T08:49:04;1.30;99.90
582;DHT22;277;50.074;8.436;2023-02-15T08:51:34;1.30;99.90
582;DHT22;277;50.074;8.436;2023-02-15T08:54:04;1.20;99.90
582;DHT22;277;50.074;8.436;2023-02-15T08:56:35;1.20;99.90
582;DHT22;277;50.074;8.436;2023-02-15T08:59:04;1.30;99.90
582;DHT22;277;50.074;8.436;2023-02-15T09:01:34;1.30;99.90
582;DHT22;277;50.074;8.436;2023-02-15T09:04:05;1.30;99.90
582;DHT22;277;50.074;8.436;2023-02-15T09:06:35;1.20;99.90
582;DHT22;277;50.074;8.436;2023-02-15T09:09:04;1.20;99.90
582;DHT22;277;50.074;8.436;2023-02-15T09:11:35;1.40;99.90
582;DHT22;277;50.074;8.436;2023-02-15T09:14:05;1.50;99.90
582;DHT22;277;50.074;8.436;2023-02-15T09:16:37;1.60;99.90
582;DHT22;277;50.074;8.436;2023-02-15T09:19:06;1.60;99.90
582;DHT22;277;50.074;8.436;2023-02-15T09:21:36;1.60;99.90
582;DHT22;277;50.074;8.436;2023-02-15T09:24:05;1.70;99.90
582;DHT22;277;50.074;8.436;2023-02-15T09:26:35;1.80;99.90
582;DHT22;277;50.074;8.436;2023-02-15T09:29:03;1.80;99.90
582;DHT22;277;50.074;8.436;2023-02-15T09:31:32;1.70;99.90
582;DHT22;277;50.074;8.436;2023-02-15T09:34:02;1.50;99.90
582;DHT22;277;50.074;8.436;2023-02-15T09:36:32;1.50;99.90
582;DHT22;277;50.074;8.436;2023-02-15T09:39:05;1.40;99.90
582;DHT22;277;50.074;8.436;2023-02-15T09:41:52;1.30;99.90
582;DHT22;277;50.074;8.436;2023-02-15T09:44:33;1.40;99.90
582;DHT22;277;50.074;8.436;2023-02-15T09:47:19;1.40;99.90
582;DHT22;277;50.074;8.436;2023-02-15T09:49:55;1.40;99.90
582;DHT22;277;50.074;8.436;2023-02-15T09:52:41;1.50;99.90
582;DHT22;277;50.074;8.436;2023-02-15T09:55:31;1.50;99.90
582;DHT22;277;50.074;8.436;2023-02-15T09:58:14;1.60;99.90
582;DHT22;277;50.074;8.436;2023-02-15T10:00:50;1.60;99.90
582;DHT22;277;50.074;8.436;2023-02-15T10:03:35;1.60;99.90
582;DHT22;277;50.074;8.436;2023-02-15T10:06:30;1.60;99.90
582;DHT22;277;50.074;8.436;2023-02-15T10:09:22;1.50;99.90
582;DHT22;277;50.074;8.436;2023-02-15T10:12:06;1.50;99.90
582;DHT22;277;50.074;8.436;2023-02-15T10:14:55;1.40;99.90
582;DHT22;277;50.074;8.436;2023-02-15T10:17:34;1.50;99.90
582;DHT22;277;50.074;8.436;2023-02-15T10:20:16;1.50;99.90
582;DHT22;277;50.074;8.436;2023-02-15T10:23:09;1.50;99.90
582;DHT22;277;50.074;8.436;2023-02-15T10:25:46;1.40;99.90
582;DHT22;277;50.074;8.436;2023-02-15T10:28:19;1.60;99.90
582;DHT22;277;50.074;8.436;2023-02-15T10:30:49;1.60;99.90
582;DHT22;277;50.074;8.436;2023-02-15T10:33:32;1.60;99.90
582;DHT22;277;50.074;8.436;2023-02-15T10:36:11;1.60;99.90
582;DHT22;277;50.074;8.436;2023-02-15T10:38:48;1.60;99.90
582;DHT22;277;50.074;8.436;2023-02-15T10:41:30;1.60;99.90
582;DHT22;277;50.074;8.436;2023-02-15T10:44:11;1.70;99.90
582;DHT22;277;50.074;8.436;2023-02-15T10:47:01;1.80;99.90
582;DHT22;277;50.074;8.436;2023-02-15T10:50:00;2.00;99.90
582;DHT22;277;50.074;8.436;2023-02-15T10:52:38;2.00;99.90
582;DHT22;277;50.074;8.436;2023-02-15T10:55:17;1.90;99.90
582;DHT22;277;50.074;8.436;2023-02-15T10:58:12;1.90;99.90
582;DHT22;277;50.074;8.436;2023-02-15T11:00:44;2.10;99.90
582;DHT22;277;50.074;8.436;2023-02-15T11:03:23;2.20;99.90
582;DHT22;277;50.074;8.436;2023-02-15T11:06:00;2.20;99.90
582;DHT22;277;50.074;8.436;2023-02-15T11:08:34;2.30;99.90
582;DHT22;277;50.074;8.436;2023-02-15T11:11:07;2.30;99.90
582;DHT22;277;50.074;8.436;2023-02-15T11:13:39;2.20;99.90
582;DHT22;277;50.074;8.436;2023-02-15T11:16:11;2.10;99.90
582;DHT22;277;50.074;8.436;2023-02-15T11:18:48;2.10;99.90
582;DHT22;277;50.074;8.436;2023-02-15T11:21:21;2.20;99.90
582;DHT22;277;50.074;8.436;2023-02-15T11:23:50;2.30;99.90
582;DHT22;277;50.074;8.436;2023-02-15T11:26:24;2.40;99.90
582;DHT22;277;50.074;8.436;2023-02-15T11:28:57;2.50;99.90
582;DHT22;277;50.074;8.436;2023-02-15T11:31:29;2.30;99.90
582;DHT22;277;50.074;8.436;2023-02-15T11:34:05;2.40;99.90
582;DHT22;277;50.074;8.436;2023-02-15T11:36:40;2.30;99.90
582;DHT22;277;50.074;8.436;2023-02-15T11:39:11;2.30;99.90
582;DHT22;277;50.074;8.436;2023-02-15T11:41:44;2.20;99.90
582;DHT22;277;50.074;8.436;2023-02-15T11:44:20;2.20;99.90
582;DHT22;277;50.074;8.436;2023-02-15T11:46:49;2.20;99.90
582;DHT22;277;50.074;8.436;2023-02-15T11:49:23;2.30;99.90
582;DHT22;277;50.074;8.436;2023-02-15T11:51:53;2.30;99.90
582;DHT22;277;50.074;8.436;2023-02-15T11:54:28;2.30;99.90
582;DHT22;277;50.074;8.436;2023-02-15T11:57:02;2.30;99.90
582;DHT22;277;50.074;8.436;2023-02-15T11:59:34;2.20;99.90
582;DHT22;277;50.074;8.436;2023-02-15T12:02:16;2.20;99.90
582;DHT22;277;50.074;8.436;2023-02-15T12:04:48;2.20;99.90
582;DHT22;277;50.074;8.436;2023-02-15T12:07:23;2.30;99.90
582;DHT22;277;50.074;8.436;2023-02-15T12:09:55;2.50;99.90
582;DHT22;277;50.074;8.436;2023-02-15T12:12:27;2.60;99.90
582;DHT22;277;50.074;8.436;2023-02-15T12:14:56;2.70;99.90
582;DHT22;277;50.074;8.436;2023-02-15T12:17:26;2.90;99.90
582;DHT22;277;50.074;8.436;2023-02-15T12:19:56;3.00;99.90
582;DHT22;277;50.074;8.436;2023-02-15T12:22:28;3.10;99.90
582;DHT22;277;50.074;8.436;2023-02-15T12:24:59;3.10;99.90
582;DHT22;277;50.074;8.436;2023-02-15T12:27:30;3.20;99.90
582;DHT22;277;50.074;8.436;2023-02-15T12:30:03;3.30;99.90
582;DHT22;277;50.074;8.436;2023-02-15T12:32:35;3.10;99.90
582;DHT22;277;50.074;8.436;2023-02-15T12:35:09;3.00;99.90
582;DHT22;277;50.074;8.436;2023-02-15T12:37:52;3.10;99.90
582;DHT22;277;50.074;8.436;2023-02-15T12:42:58;2.90;99.90
582;DHT22;277;50.074;8.436;2023-02-15T12:45:29;2.80;99.90
582;DHT22;277;50.074;8.436;2023-02-15T12:48:15;2.90;99.90
582;DHT22;277;50.074;8.436;2023-02-15T12:50:44;3.00;99.90
582;DHT22;277;50.074;8.436;2023-02-15T12:53:17;3.00;99.90
582;DHT22;277;50.074;8.436;2023-02-15T12:55:51;3.10;99.90
582;DHT22;277;50.074;8.436;2023-02-15T12:58:21;3.10;99.90
582;DHT22;277;50.074;8.436;2023-02-15T13:01:10;3.20;99.90
582;DHT22;277;50.074;8.436;2023-02-15T13:03:57;3.10;99.90
582;DHT22;277;50.074;8.436;2023-02-15T13:06:26;3.00;99.90
582;DHT22;277;50.074;8.436;2023-02-15T13:08:56;3.10;99.90
582;DHT22;277;50.074;8.436;2023-02-15T13:11:27;3.10;99.90
582;DHT22;277;50.074;8.436;2023-02-15T13:14:03;3.00;99.90
582;DHT22;277;50.074;8.436;2023-02-15T13:16:45;3.00;99.90
582;DHT22;277;50.074;8.436;2023-02-15T13:19:16;2.80;99.90
582;DHT22;277;50.074;8.436;2023-02-15T13:21:46;2.80;99.90
582;DHT22;277;50.074;8.436;2023-02-15T13:24:18;2.90;99.90
582;DHT22;277;50.074;8.436;2023-02-15T13:26:48;3.00;99.90
582;DHT22;277;50.074;8.436;2023-02-15T13:29:22;3.20;99.90
582;DHT22;277;50.074;8.436;2023-02-15T13:31:51;3.30;99.90
582;DHT22;277;50.074;8.436;2023-02-15T13:34:24;3.30;99.90
582;DHT22;277;50.074;8.436;2023-02-15T13:36:59;3.30;99.90
582;DHT22;277;50.074;8.436;2023-02-15T13:39:33;3.30;99.90
582;DHT22;277;50.074;8.436;2023-02-15T13:42:18;3.30;99.90
582;DHT22;277;50.074;8.436;2023-02-15T13:44:59;3.20;99.90
582;DHT22;277;50.074;8.436;2023-02-15T13:47:37;3.10;99.90
582;DHT22;277;50.074;8.436;2023-02-15T13:50:26;3.20;99.90
582;DHT22;277;50.074;8.436;2023-02-15T13:53:13;3.30;99.90
582;DHT22;277;50.074;8.436;2023-02-15T13:55:49;3.40;99.90
582;DHT22;277;50.074;8.436;2023-02-15T13:58:38;3.40;99.90
582;DHT22;277;50.074;8.436;2023-02-15T14:01:19;3.40;99.90
582;DHT22;277;50.074;8.436;2023-02-15T14:04:18;3.30;99.90
582;DHT22;277;50.074;8.436;2023-02-15T14:07:05;3.20;99.90
582;DHT22;277;50.074;8.436;2023-02-15T14:09:46;3.20;99.90
582;DHT22;277;50.074;8.436;2023-02-15T14:12:47;3.10;99.90
582;DHT22;277;50.074;8.436;2023-02-15T14:15:27;3.10;99.90
582;DHT22;277;50.074;8.436;2023-02-15T14:18:12;3.00;99.90
582;DHT22;277;50.074;8.436;2023-02-15T14:20:56;2.90;99.90
582;DHT22;277;50.074;8.436;2023-02-15T14:23:33;3.00;99.90
582;DHT22;277;50.074;8.436;2023-02-15T14:26:09;3.10;99.90
582;DHT22;277;50.074;8.436;2023-02-15T14:28:44;3.10;99.90
582;DHT22;277;50.074;8.436;2023-02-15T14:31:15;3.20;99.90
582;DHT22;277;50.074;8.436;2023-02-15T14:33:53;3.10;99.90
582;DHT22;277;50.074;8.436;2023-02-15T14:36:23;3.10;99.90
582;DHT22;277;50.074;8.436;2023-02-15T14:38:59;3.20;99.90
582;DHT22;277;50.074;8.436;2023-02-15T14:41:37;3.20;99.90
582;DHT22;277;50.074;8.436;2023-02-15T14:44:11;3.30;99.90
582;DHT22;277;50.074;8.436;2023-02-15T14:46:46;3.20;99.90
582;DHT22;277;50.074;8.436;2023-02-15T14:49:19;3.10;99.90
582;DHT22;277;50.074;8.436;2023-02-15T14:52:00;3.10;99.90
582;DHT22;277;50.074;8.436;2023-02-15T14:54:59;3.10;99.90
582;DHT22;277;50.074;8.436;2023-02-15T14:57:34;3.20;99.90
582;DHT22;277;50.074;8.436;2023-02-15T15:00:37;3.30;99.90
582;DHT22;277;50.074;8.436;2023-02-15T15:03:20;3.30;99.90
582;DHT22;277;50.074;8.436;2023-02-15T15:05:52;3.40;99.90
582;DHT22;277;50.074;8.436;2023-02-15T15:08:25;3.50;99.90
582;DHT22;277;50.074;8.436;2023-02-15T15:10:54;3.50;99.90
582;DHT22;277;50.074;8.436;2023-02-15T15:16:27;3.70;99.90
582;DHT22;277;50.074;8.436;2023-02-15T15:18:56;3.60;99.90
582;DHT22;277;50.074;8.436;2023-02-15T15:21:56;3.50;99.90
582;DHT22;277;50.074;8.436;2023-02-15T15:24:52;3.50;99.90
582;DHT22;277;50.074;8.436;2023-02-15T15:27:41;3.50;99.90
582;DHT22;277;50.074;8.436;2023-02-15T15:36:48;3.70;99.90
582;DHT22;277;50.074;8.436;2023-02-15T15:42:29;3.70;99.90
582;DHT22;277;50.074;8.436;2023-02-15T15:45:34;3.60;99.90
582;DHT22;277;50.074;8.436;2023-02-15T15:48:30;3.50;99.90
582;DHT22;277;50.074;8.436;2023-02-15T15:51:01;3.40;99.90
582;DHT22;277;50.074;8.436;2023-02-15T15:53:34;3.30;99.90
582;DHT22;277;50.074;8.436;2023-02-15T15:56:11;3.30;99.90
582;DHT22;277;50.074;8.436;2023-02-15T15:58:44;3.40;99.90
582;DHT22;277;50.074;8.436;2023-02-15T16:01:13;3.50;99.90
582;DHT22;277;50.074;8.436;2023-02-15T16:03:49;3.60;99.90
582;DHT22;277;50.074;8.436;2023-02-15T16:06:29;3.50;99.90
582;DHT22;277;50.074;8.436;2023-02-15T16:09:13;3.50;99.90
582;DHT22;277;50.074;8.436;2023-02-15T16:11:46;3.40;99.90
582;DHT22;277;50.074;8.436;2023-02-15T16:14:16;3.30;99.90
582;DHT22;277;50.074;8.436;2023-02-15T16:16:53;3.30;99.90
582;DHT22;277;50.074;8.436;2023-02-15T16:19:25;3.20;99.90
582;DHT22;277;50.074;8.436;2023-02-15T16:21:54;3.10;99.90
582;DHT22;277;50.074;8.436;2023-02-15T16:24:36;3.10;99.90
582;DHT22;277;50.074;8.436;2023-02-15T16:27:29;3.00;99.90
582;DHT22;277;50.074;8.436;2023-02-15T16:29:58;3.00;99.90
582;DHT22;277;50.074;8.436;2023-02-15T16:32:38;3.00;99.90
582;DHT22;277;50.074;8.436;2023-02-15T16:35:13;2.90;99.90
582;DHT22;277;50.074;8.436;2023-02-15T16:37:42;2.80;99.90
582;DHT22;277;50.074;8.436;2023-02-15T16:40:32;2.80;99.90
582;DHT22;277;50.074;8.436;2023-02-15T16:43:04;2.80;99.90
582;DHT22;277;50.074;8.436;2023-02-15T16:45:34;2.80;99.90
582;DHT22;277;50.074;8.436;2023-02-15T16:48:06;2.70;99.90
582;DHT22;277;50.074;8.436;2023-02-15T16:50:37;2.70;99.90
582;DHT22;277;50.074;8.436;2023-02-15T16:53:07;2.70;99.90
582;DHT22;277;50.074;8.436;2023-02-15T16:55:42;2.70;99.90
582;DHT22;277;50.074;8.436;2023-02-15T16:58:16;2.80;99.90
582;DHT22;277;50.074;8.436;2023-02-15T17:00:44;2.80;99.90
582;DHT22;277;50.074;8.436;2023-02-15T17:03:23;2.70;99.90
582;DHT22;277;50.074;8.436;2023-02-15T17:05:54;2.60;99.90
582;DHT22;277;50.074;8.436;2023-02-15T17:08:29;2.60;99.90
582;DHT22;277;50.074;8.436;2023-02-15T17:11:14;2.70;99.90
582;DHT22;277;50.074;8.436;2023-02-15T17:14:21;2.80;99.90
582;DHT22;277;50.074;8.436;2023-02-15T17:16:50;2.80;99.90
582;DHT22;277;50.074;8.436;2023-02-15T17:19:22;2.80;99.90
582;DHT22;277;50.074;8.436;2023-02-15T17:21:53;2.80;99.90
582;DHT22;277;50.074;8.436;2023-02-15T17:24:31;2.80;99.90
582;DHT22;277;50.074;8.436;2023-02-15T17:27:02;2.80;99.90
582;DHT22;277;50.074;8.436;2023-02-15T17:29:36;2.80;99.90
582;DHT22;277;50.074;8.436;2023-02-15T17:32:09;2.70;99.90
582;DHT22;277;50.074;8.436;2023-02-15T17:34:47;2.80;99.90
582;DHT22;277;50.074;8.436;2023-02-15T17:37:24;2.80;99.90
582;DHT22;277;50.074;8.436;2023-02-15T17:39:53;2.80;99.90
582;DHT22;277;50.074;8.436;2023-02-15T17:42:21;2.90;99.90
582;DHT22;277;50.074;8.436;2023-02-15T17:44:50;2.80;99.90
582;DHT22;277;50.074;8.436;2023-02-15T17:47:20;2.80;99.90
582;DHT22;277;50.074;8.436;2023-02-15T17:49:51;2.80;99.90
582;DHT22;277;50.074;8.436;2023-02-15T17:52:20;2.80;99.90
582;DHT22;277;50.074;8.436;2023-02-15T17:54:47;2.70;99.90
582;DHT22;277;50.074;8.436;2023-02-15T17:57:33;2.70;99.90
582;DHT22;277;50.074;8.436;2023-02-15T18:00:03;2.70;99.90